Brushvale, Minnesota
Current Conditions -  °F | °C
As of 10:35 AM on Sunday 21 Dec 2014 (Local Time) from KBWP Reporting Station
Overcast Overcast  
Wind Chill: 22°   Ceiling: 700
Heat Index: 32°   Visibility: 2.5mi
Dew Point: 30°   Wind: 15mph
Humidity: 93%   Direction: 150°SSE
Pressure: 29.72"   Gusts: NA
Location:  46.3422°N, 96.4653°W
Report Text: KBWP 211635Z AUTO 15013KT 2 1/2SM OVC007 00/M01 A2972 RMK AO1
Loading
Personal Weather Stations






























Interactive Weather Map New forecast layout! Learn more

10-Day Weather Forecast

Advertisements
Track Severe Weather on mobile